createdAt,value
2023-04-01T00:01:17.823Z,92.72
2023-04-01T00:03:45.184Z,92.37
2023-04-01T00:06:17.768Z,92.43
2023-04-01T00:08:45.647Z,92.05
2023-04-01T00:11:12.816Z,92.72
2023-04-01T00:13:39.480Z,92.05
2023-04-01T00:16:17.660Z,92.12
2023-04-01T00:18:48.669Z,92.59
2023-04-01T00:21:16.917Z,92.82
2023-04-01T00:23:43.702Z,92.70
2023-04-01T00:26:10.756Z,92.91
2023-04-01T00:28:37.623Z,92.92
2023-04-01T00:31:11.621Z,92.79
2023-04-01T00:33:39.245Z,92.97
2023-04-01T00:36:14.898Z,93.37
2023-04-01T00:38:43.594Z,93.04
2023-04-01T00:41:15.835Z,93.65
2023-04-01T00:43:50.166Z,94.21
2023-04-01T00:46:16.973Z,94.18
2023-04-01T00:48:48.887Z,94.27
2023-04-01T00:51:19.920Z,94.46
2023-04-01T00:53:51.032Z,94.33
2023-04-01T00:56:40.839Z,93.64
2023-04-01T00:59:28.552Z,93.43
2023-04-01T01:01:55.541Z,93.63
2023-04-01T01:04:33.974Z,93.68
2023-04-01T01:07:24.741Z,92.93
2023-04-01T01:10:05.606Z,93.20
2023-04-01T01:12:42.074Z,93.28
2023-04-01T01:15:20.587Z,93.02
2023-04-01T01:17:56.312Z,92.58
2023-04-01T01:20:49.414Z,92.56
2023-04-01T01:23:41.102Z,92.38
2023-04-01T01:26:48.081Z,92.58
2023-04-01T01:29:52.284Z,92.64
2023-04-01T01:32:34.230Z,92.40
2023-04-01T01:35:38.528Z,91.79
2023-04-01T01:38:15.143Z,91.75
2023-04-01T01:40:45.937Z,91.77
2023-04-01T01:43:17.389Z,91.43
2023-04-01T01:45:50.433Z,91.41
2023-04-01T01:48:18.484Z,91.15
2023-04-01T01:50:48.152Z,90.72
2023-04-01T01:53:14.822Z,90.98
2023-04-01T01:55:44.362Z,90.67
2023-04-01T01:58:18.870Z,90.22
2023-04-01T02:00:51.413Z,91.01
2023-04-01T02:03:19.088Z,91.54
2023-04-01T02:05:46.103Z,91.48
2023-04-01T02:08:26.067Z,91.95
2023-04-01T02:11:06.944Z,92.34
2023-04-01T02:14:04.259Z,92.22
2023-04-01T02:16:40.273Z,92.72
2023-04-01T02:19:11.445Z,92.92
2023-04-01T02:21:40.674Z,92.88
2023-04-01T02:24:13.310Z,92.89
2023-04-01T02:26:41.035Z,92.77
2023-04-01T02:29:11.739Z,92.58
2023-04-01T02:31:38.777Z,93.13
2023-04-01T02:34:05.897Z,93.53
2023-04-01T02:36:33.551Z,93.89
2023-04-01T02:39:03.525Z,93.97
2023-04-01T02:41:30.212Z,94.48
2023-04-01T02:43:59.511Z,94.92
2023-04-01T02:46:26.692Z,95.07
2023-04-01T02:48:53.281Z,95.15
2023-04-01T02:51:20.174Z,95.17
2023-04-01T02:53:46.822Z,94.95
2023-04-01T02:56:13.473Z,95.05
2023-04-01T02:58:40.370Z,95.37
2023-04-01T03:01:09.831Z,96.42
2023-04-01T03:03:36.498Z,96.23
2023-04-01T03:06:08.235Z,96.34
2023-04-01T03:08:35.165Z,96.15
2023-04-01T03:11:01.832Z,95.94
2023-04-01T03:13:28.484Z,96.40
2023-04-01T03:15:55.691Z,96.25
2023-04-01T03:18:22.567Z,96.17
2023-04-01T03:20:49.189Z,96.18
2023-04-01T03:23:18.446Z,96.40
2023-04-01T03:25:45.140Z,96.71
2023-04-01T03:28:14.408Z,96.83
2023-04-01T03:30:43.376Z,96.49
2023-04-01T03:33:10.149Z,96.65
2023-04-01T03:35:37.174Z,96.11
2023-04-01T03:38:03.878Z,96.34
2023-04-01T03:40:30.533Z,96.24
2023-04-01T03:42:57.353Z,96.49
2023-04-01T03:45:24.129Z,96.26
2023-04-01T03:47:50.808Z,96.57
2023-04-01T03:50:17.540Z,96.15
2023-04-01T03:52:46.441Z,96.07
2023-04-01T03:55:13.391Z,96.38
2023-04-01T03:57:40.004Z,96.02
2023-04-01T04:00:07.338Z,96.12
2023-04-01T04:02:34.031Z,95.91
2023-04-01T04:05:00.730Z,96.09
2023-04-01T04:07:27.364Z,95.81
2023-04-01T04:09:53.986Z,96.06
2023-04-01T04:12:20.600Z,96.02
2023-04-01T04:14:47.176Z,95.86
2023-04-01T04:17:17.454Z,96.13
2023-04-01T04:19:44.587Z,96.10
2023-04-01T04:22:11.286Z,96.02
2023-04-01T04:24:38.924Z,96.14
2023-04-01T04:27:05.992Z,95.89
2023-04-01T04:29:32.574Z,96.07
2023-04-01T04:31:59.289Z,95.78
2023-04-01T04:34:26.084Z,96.04
2023-04-01T04:36:52.759Z,96.15
2023-04-01T04:39:19.410Z,95.82
2023-04-01T04:41:46.140Z,95.98
2023-04-01T04:44:12.922Z,95.95
2023-04-01T04:46:40.557Z,96.09
2023-04-01T04:49:07.913Z,95.87
2023-04-01T04:51:36.899Z,96.04
2023-04-01T04:54:04.441Z,96.35
2023-04-01T04:56:31.912Z,95.88
2023-04-01T04:58:59.341Z,96.31
2023-04-01T05:01:26.622Z,96.54
2023-04-01T05:03:53.313Z,96.45
2023-04-01T05:06:23.373Z,96.12
2023-04-01T05:08:50.202Z,96.69
2023-04-01T05:11:20.722Z,96.74
2023-04-01T05:13:47.647Z,97.01
2023-04-01T05:16:17.518Z,96.88
2023-04-01T05:18:44.931Z,96.69
2023-04-01T05:21:13.216Z,97.24
2023-04-01T05:23:40.445Z,96.88
2023-04-01T05:26:09.671Z,97.02
2023-04-01T05:28:36.507Z,97.15
2023-04-01T05:31:04.197Z,96.84
2023-04-01T05:33:31.428Z,97.38
2023-04-01T05:36:07.133Z,97.27
2023-04-01T05:38:33.832Z,96.72
2023-04-01T05:41:04.267Z,96.65
2023-04-01T05:43:31.321Z,96.72
2023-04-01T05:45:59.480Z,96.71
2023-04-01T05:48:26.124Z,96.45
2023-04-01T05:50:52.726Z,96.47
2023-04-01T05:53:19.509Z,96.53
2023-04-01T05:55:46.205Z,97.00
2023-04-01T05:58:12.869Z,96.97
2023-04-01T06:00:39.757Z,96.82
2023-04-01T06:03:06.465Z,97.31
2023-04-01T06:05:41.232Z,97.40
2023-04-01T06:08:20.350Z,97.42
2023-04-01T06:10:56.180Z,97.35
2023-04-01T06:13:47.146Z,97.40
2023-04-01T06:16:19.412Z,97.34
2023-04-01T06:19:15.252Z,97.53
2023-04-01T06:22:04.233Z,97.14
2023-04-01T06:24:55.290Z,97.07
2023-04-01T06:27:30.953Z,96.81
2023-04-01T06:30:39.595Z,97.43
2023-04-01T06:33:16.134Z,97.47
2023-04-01T06:35:57.982Z,96.92
2023-04-01T06:38:51.605Z,96.83
2023-04-01T06:41:39.440Z,97.13
2023-04-01T06:44:28.224Z,96.43
2023-04-01T06:47:24.240Z,96.73
2023-04-01T06:49:56.888Z,97.07
2023-04-01T06:52:31.538Z,96.20
2023-04-01T06:55:31.166Z,96.46
2023-04-01T06:58:01.093Z,95.85
2023-04-01T07:00:31.778Z,95.38
2023-04-01T07:03:10.630Z,96.08
2023-04-01T07:05:37.305Z,96.19
2023-04-01T07:08:07.096Z,96.07
2023-04-01T07:10:47.582Z,96.25
2023-04-01T07:13:22.607Z,95.33
2023-04-01T07:16:17.077Z,95.35
2023-04-01T07:18:57.728Z,95.07
2023-04-01T07:21:37.321Z,95.56
2023-04-01T07:24:13.206Z,96.26
2023-04-01T07:26:39.878Z,95.82
2023-04-01T07:29:12.110Z,95.40
2023-04-01T07:31:46.417Z,95.22
2023-04-01T07:34:28.574Z,94.44
2023-04-01T07:37:08.541Z,94.64
2023-04-01T07:39:41.204Z,94.23
2023-04-01T07:42:30.901Z,95.19
2023-04-01T07:45:22.234Z,95.48
2023-04-01T07:47:59.087Z,95.62
2023-04-01T07:50:31.210Z,95.93
2023-04-01T07:53:18.312Z,96.09
2023-04-01T07:56:13.931Z,96.34
2023-04-01T07:58:56.132Z,96.45
2023-04-01T08:01:41.534Z,96.74
2023-04-01T08:04:24.751Z,96.76
2023-04-01T08:06:59.337Z,96.85
2023-04-01T08:09:48.592Z,96.85
2023-04-01T08:12:36.997Z,97.19
2023-04-01T08:15:28.380Z,97.20
2023-04-01T08:18:16.658Z,96.85
2023-04-01T08:20:48.653Z,96.43
2023-04-01T08:23:30.400Z,96.27
2023-04-01T08:25:57.247Z,96.68
2023-04-01T08:28:47.017Z,96.92
2023-04-01T08:31:26.250Z,97.03
2023-04-01T08:33:56.174Z,97.32
2023-04-01T08:36:28.397Z,97.05
2023-04-01T08:39:10.486Z,96.76
2023-04-01T08:41:56.032Z,96.93
2023-04-01T08:44:43.246Z,97.08
2023-04-01T08:47:31.585Z,96.42
2023-04-01T08:50:26.376Z,97.04
2023-04-01T08:53:07.495Z,96.84
2023-04-01T08:55:53.743Z,96.86
2023-04-01T08:58:39.245Z,96.89
2023-04-01T09:01:18.732Z,96.92
2023-04-01T09:04:14.746Z,96.74
2023-04-01T09:06:45.817Z,96.64
2023-04-01T09:09:39.726Z,97.33
2023-04-01T09:12:25.406Z,97.30
2023-04-01T09:15:07.446Z,97.09
2023-04-01T09:18:02.716Z,96.66
2023-04-01T09:20:39.552Z,96.80
2023-04-01T09:23:33.247Z,96.99
2023-04-01T09:26:23.300Z,96.29
2023-04-01T09:29:17.748Z,96.51
2023-04-01T09:31:53.518Z,96.42
2023-04-01T09:34:38.284Z,96.02
2023-04-01T09:37:35.421Z,96.00
2023-04-01T09:40:11.431Z,95.58
2023-04-01T09:43:06.656Z,95.09
2023-04-01T09:45:33.474Z,95.82
2023-04-01T09:48:25.253Z,96.18
2023-04-01T09:51:12.479Z,96.20
2023-04-01T09:53:49.687Z,96.53
2023-04-01T09:56:54.061Z,96.45
2023-04-01T09:59:48.439Z,96.24
2023-04-01T10:02:59.003Z,96.63
2023-04-01T10:05:31.613Z,96.86
2023-04-01T10:08:20.058Z,96.49
2023-04-01T10:11:26.308Z,96.40
2023-04-01T10:14:25.234Z,96.01
2023-04-01T10:17:19.765Z,96.45
2023-04-01T10:20:14.545Z,96.69
2023-04-01T10:22:41.289Z,96.54
2023-04-01T10:25:29.134Z,96.48
2023-04-01T10:28:17.230Z,96.50
2023-04-01T10:31:13.554Z,96.87
2023-04-01T10:34:21.832Z,96.36
2023-04-01T10:36:59.265Z,96.53
2023-04-01T10:39:53.595Z,96.81
2023-04-01T10:42:57.935Z,96.97
2023-04-01T10:45:49.799Z,96.24
2023-04-01T10:48:22.167Z,97.10
2023-04-01T10:51:13.745Z,96.90
2023-04-01T10:53:43.360Z,96.49
2023-04-01T10:56:34.992Z,96.86
2023-04-01T10:59:15.425Z,96.60
2023-04-01T11:02:27.234Z,96.37
2023-04-01T11:05:43.652Z,96.37
2023-04-01T11:08:46.818Z,96.80
2023-04-01T11:11:44.602Z,97.27
2023-04-01T11:14:14.754Z,97.41
2023-04-01T11:16:54.552Z,97.63
2023-04-01T11:19:56.527Z,97.97
2023-04-01T11:22:51.755Z,97.75
2023-04-01T11:25:26.327Z,98.21
2023-04-01T11:27:56.060Z,98.43
2023-04-01T11:30:42.311Z,98.11
2023-04-01T11:33:29.690Z,98.13
2023-04-01T11:37:04.216Z,97.79
2023-04-01T11:39:48.871Z,97.94
2023-04-01T11:42:33.797Z,98.23
2023-04-01T11:45:39.184Z,98.26
2023-04-01T11:48:26.470Z,98.30
2023-04-01T11:50:53.415Z,98.37
2023-04-01T11:53:35.237Z,98.04
2023-04-01T11:56:36.099Z,98.75
2023-04-01T11:59:25.570Z,98.43
2023-04-01T12:02:08.453Z,98.50
2023-04-01T12:04:49.957Z,98.14
2023-04-01T12:07:46.766Z,98.74
2023-04-01T12:10:23.019Z,98.73
2023-04-01T12:13:02.068Z,98.61
2023-04-01T12:15:53.618Z,98.18
2023-04-01T12:18:51.315Z,97.90
2023-04-01T12:21:37.377Z,97.24
2023-04-01T12:24:22.444Z,97.63
2023-04-01T12:27:17.840Z,97.65
2023-04-01T12:30:06.366Z,97.42
2023-04-01T12:32:46.905Z,96.57
2023-04-01T12:35:30.958Z,96.75
2023-04-01T12:38:15.063Z,97.23
2023-04-01T12:40:53.123Z,97.03
2023-04-01T12:43:36.462Z,97.27
2023-04-01T12:46:11.904Z,97.14
2023-04-01T12:48:54.920Z,97.22
2023-04-01T12:51:46.820Z,97.24
2023-04-01T12:55:01.545Z,97.00
2023-04-01T12:57:42.931Z,97.29
2023-04-01T13:00:45.228Z,96.87
2023-04-01T13:03:30.146Z,97.09
2023-04-01T13:06:20.940Z,97.00
2023-04-01T13:09:28.245Z,97.02
2023-04-01T13:12:11.181Z,97.06
2023-04-01T13:15:16.663Z,97.57
2023-04-01T13:17:58.745Z,97.63
2023-04-01T13:20:34.705Z,97.53
2023-04-01T13:23:35.584Z,97.93
2023-04-01T13:26:14.208Z,97.87
2023-04-01T13:29:12.975Z,97.65
2023-04-01T13:32:07.555Z,97.75
2023-04-01T13:34:59.777Z,97.87
2023-04-01T13:37:53.666Z,97.68
2023-04-01T13:40:59.589Z,97.87
2023-04-01T13:43:40.890Z,97.78
2023-04-01T13:46:51.389Z,98.17
2023-04-01T13:49:59.547Z,98.25
2023-04-01T13:52:31.981Z,98.25
2023-04-01T13:55:17.241Z,98.35
2023-04-01T13:57:49.791Z,98.48
2023-04-01T14:00:31.730Z,98.48
2023-04-01T14:03:52.047Z,98.84
2023-04-01T14:06:39.482Z,98.89
2023-04-01T14:09:23.063Z,98.62
2023-04-01T14:12:23.009Z,98.88
2023-04-01T14:15:23.044Z,98.71
2023-04-01T14:18:04.135Z,98.80
2023-04-01T14:20:41.928Z,99.03
2023-04-01T14:23:20.987Z,99.08
2023-04-01T14:26:16.285Z,99.03
2023-04-01T14:29:34.088Z,99.11
2023-04-01T14:32:07.812Z,98.57
2023-04-01T14:34:34.400Z,98.88
2023-04-01T14:37:35.040Z,98.14
2023-04-01T14:40:30.114Z,98.61
2023-04-01T14:42:59.924Z,98.72
2023-04-01T14:45:36.396Z,98.94
2023-04-01T14:48:41.064Z,99.15
2023-04-01T14:51:17.846Z,98.45
2023-04-01T14:54:06.034Z,98.55
2023-04-01T14:56:49.493Z,99.14
2023-04-01T14:59:28.394Z,99.38
2023-04-01T15:02:09.992Z,98.94
2023-04-01T15:05:02.487Z,99.00
2023-04-01T15:07:47.762Z,99.09
2023-04-01T15:10:21.928Z,98.80
2023-04-01T15:13:19.316Z,98.79
2023-04-01T15:16:10.670Z,99.29
2023-04-01T15:19:02.000Z,99.34
2023-04-01T15:21:35.174Z,99.13
2023-04-01T15:24:13.875Z,98.90
2023-04-01T15:27:13.785Z,98.75
2023-04-01T15:29:45.963Z,99.08
2023-04-01T15:32:24.912Z,99.10
2023-04-01T15:35:04.276Z,99.50
2023-04-01T15:37:59.859Z,99.33
2023-04-01T15:40:52.524Z,99.20
2023-04-01T15:43:54.720Z,99.21
2023-04-01T15:46:36.632Z,98.91
2023-04-01T15:49:23.768Z,98.70
2023-04-01T15:51:57.648Z,98.55
2023-04-01T15:54:58.099Z,98.51
2023-04-01T15:57:27.746Z,98.60
2023-04-01T16:00:19.414Z,98.74
2023-04-01T16:03:16.187Z,98.95
2023-04-01T16:06:12.110Z,99.13
2023-04-01T16:09:00.175Z,98.94
2023-04-01T16:11:45.148Z,98.73
2023-04-01T16:14:40.839Z,99.15
2023-04-01T16:17:35.913Z,99.09
2023-04-01T16:20:14.702Z,98.69
2023-04-01T16:22:46.085Z,99.16
2023-04-01T16:25:36.951Z,98.73
2023-04-01T16:28:29.169Z,98.87
2023-04-01T16:31:05.840Z,98.65
2023-04-01T16:33:52.170Z,98.50
2023-04-01T16:36:25.821Z,98.79
2023-04-01T16:39:19.501Z,98.59
2023-04-01T16:41:59.096Z,98.62
2023-04-01T16:44:28.519Z,98.46
2023-04-01T16:46:59.824Z,98.97
2023-04-01T16:49:56.239Z,98.67
2023-04-01T16:52:55.242Z,99.01
2023-04-01T16:55:25.487Z,98.83
2023-04-01T16:57:57.231Z,98.80
2023-04-01T17:00:42.811Z,99.15
2023-04-01T17:03:18.963Z,98.76
2023-04-01T17:06:05.900Z,98.65
2023-04-01T17:09:03.770Z,99.03
2023-04-01T17:11:38.591Z,98.70
2023-04-01T17:14:08.240Z,98.46
2023-04-01T17:16:48.761Z,99.17
2023-04-01T17:19:42.272Z,98.98
2023-04-01T17:22:30.824Z,99.04
2023-04-01T17:25:22.967Z,99.30
2023-04-01T17:28:08.069Z,99.41
2023-04-01T17:30:50.882Z,99.25
2023-04-01T17:33:44.641Z,99.13
2023-04-01T17:36:27.368Z,99.29
2023-04-01T17:39:11.564Z,99.37
2023-04-01T17:41:54.156Z,99.54
2023-04-01T17:44:45.941Z,99.22
2023-04-01T17:47:34.858Z,99.27
2023-04-01T17:50:20.160Z,99.43
2023-04-01T17:53:02.636Z,99.27
2023-04-01T17:55:48.160Z,99.52
2023-04-01T17:58:29.570Z,99.33
2023-04-01T18:01:15.262Z,99.29
2023-04-01T18:04:09.634Z,99.46
2023-04-01T18:06:55.593Z,99.31
2023-04-01T18:09:40.648Z,99.59
2023-04-01T18:12:17.153Z,99.50
2023-04-01T18:15:06.618Z,99.49
2023-04-01T18:17:53.910Z,99.40
2023-04-01T18:20:36.106Z,99.43
2023-04-01T18:23:18.307Z,99.29
2023-04-01T18:25:49.688Z,99.26
2023-04-01T18:28:20.249Z,99.41
2023-04-01T18:30:58.890Z,99.46
2023-04-01T18:33:42.255Z,99.18
2023-04-01T18:36:36.447Z,99.19
2023-04-01T18:39:20.025Z,99.58
2023-04-01T18:42:22.093Z,99.56
2023-04-01T18:44:53.499Z,99.40
2023-04-01T18:47:36.497Z,99.42
2023-04-01T18:50:38.779Z,99.20
2023-04-01T18:53:35.270Z,99.54
2023-04-01T18:56:07.505Z,99.42
2023-04-01T18:58:48.875Z,99.25
2023-04-01T19:01:23.988Z,99.30
2023-04-01T19:04:01.402Z,99.34
2023-04-01T19:06:48.710Z,99.34
2023-04-01T19:09:27.087Z,99.11
2023-04-01T19:12:34.768Z,99.26
2023-04-01T19:15:23.208Z,99.13
2023-04-01T19:18:03.613Z,99.24
2023-04-01T19:20:55.200Z,98.71
2023-04-01T19:23:55.130Z,98.42
2023-04-01T19:26:38.625Z,98.64
2023-04-01T19:29:14.579Z,98.95
2023-04-01T19:31:57.775Z,98.91
2023-04-01T19:34:35.944Z,98.97
2023-04-01T19:37:06.671Z,98.58
2023-04-01T19:40:15.865Z,99.08
2023-04-01T19:42:48.511Z,98.62
2023-04-01T19:45:15.067Z,98.79
2023-04-01T19:48:01.646Z,98.64
2023-04-01T19:50:52.188Z,98.07
2023-04-01T19:53:36.034Z,97.74
2023-04-01T19:56:24.974Z,97.89
2023-04-01T19:59:11.162Z,97.65
2023-04-01T20:01:46.268Z,97.05
2023-04-01T20:04:45.333Z,96.81
2023-04-01T20:07:23.693Z,96.84
2023-04-01T20:10:36.117Z,97.11
2023-04-01T20:13:16.909Z,97.17
2023-04-01T20:15:47.871Z,96.57
2023-04-01T20:18:21.347Z,97.32
2023-04-01T20:21:18.444Z,97.17
2023-04-01T20:24:03.001Z,96.65
2023-04-01T20:26:36.484Z,96.38
2023-04-01T20:29:27.957Z,96.14
2023-04-01T20:32:13.076Z,95.87
2023-04-01T20:35:18.266Z,95.60
2023-04-01T20:38:15.164Z,95.25
2023-04-01T20:40:48.015Z,95.45
2023-04-01T20:43:36.812Z,94.79
2023-04-01T20:46:26.486Z,94.34
2023-04-01T20:49:02.307Z,93.84
2023-04-01T20:51:36.494Z,93.86
2023-04-01T20:54:33.015Z,93.96
2023-04-01T20:57:28.802Z,94.40
2023-04-01T21:00:02.234Z,94.46
2023-04-01T21:02:31.811Z,94.34
2023-04-01T21:05:39.526Z,94.22
2023-04-01T21:08:23.550Z,93.46
2023-04-01T21:11:01.636Z,93.97
2023-04-01T21:13:52.983Z,93.63
2023-04-01T21:16:44.932Z,93.20
2023-04-01T21:19:30.041Z,92.95
2023-04-01T21:22:09.331Z,93.31
2023-04-01T21:25:02.894Z,92.42
2023-04-01T21:28:14.480Z,92.66
2023-04-01T21:30:53.080Z,92.79
2023-04-01T21:33:47.885Z,92.83
2023-04-01T21:36:45.509Z,93.37
2023-04-01T21:39:52.499Z,93.59
2023-04-01T21:42:32.397Z,94.26
2023-04-01T21:45:01.796Z,94.44
2023-04-01T21:47:28.412Z,94.27
2023-04-01T21:50:12.845Z,94.02
2023-04-01T21:53:13.576Z,93.96
2023-04-01T21:56:21.230Z,94.87
2023-04-01T21:59:14.129Z,94.59
2023-04-01T22:01:46.977Z,95.06
2023-04-01T22:05:01.889Z,94.42
2023-04-01T22:08:05.820Z,95.01
2023-04-01T22:10:52.381Z,94.70
2023-04-01T22:13:33.856Z,95.26
2023-04-01T22:16:18.880Z,95.15
2023-04-01T22:19:04.440Z,94.09
2023-04-01T22:21:53.280Z,93.77
2023-04-01T22:24:49.472Z,93.69
2023-04-01T22:27:28.354Z,93.53
2023-04-01T22:30:08.700Z,93.67
2023-04-01T22:32:38.429Z,93.11
2023-04-01T22:35:05.157Z,93.36
2023-04-01T22:37:31.853Z,93.19
2023-04-01T22:40:40.568Z,92.76
2023-04-01T22:43:14.520Z,93.21
2023-04-01T22:46:00.406Z,93.74
2023-04-01T22:48:53.592Z,93.46
2023-04-01T22:51:34.962Z,93.43
2023-04-01T22:54:17.604Z,92.43
2023-04-01T22:57:01.258Z,92.97
2023-04-01T22:59:46.303Z,92.35
2023-04-01T23:02:20.867Z,93.09
2023-04-01T23:04:56.886Z,92.68
2023-04-01T23:07:47.970Z,92.64
2023-04-01T23:10:42.176Z,90.80
2023-04-01T23:13:20.310Z,91.13
2023-04-01T23:15:50.467Z,90.90
2023-04-01T23:21:13.746Z,91.56
2023-04-01T23:24:14.903Z,92.59
2023-04-01T23:26:56.108Z,92.56
2023-04-01T23:29:26.131Z,93.41
2023-04-01T23:32:04.944Z,93.53
2023-04-01T23:34:33.671Z,93.15
2023-04-01T23:37:05.937Z,93.33
2023-04-01T23:39:45.128Z,94.02
2023-04-01T23:42:16.849Z,93.78
2023-04-01T23:44:45.024Z,93.81
2023-04-01T23:47:19.382Z,93.36
2023-04-01T23:49:54.180Z,93.71
2023-04-01T23:52:41.532Z,93.39
2023-04-01T23:55:32.388Z,92.63
2023-04-01T23:58:27.796Z,92.34
